createdAt,value
2023-04-15T00:02:36.358Z,98863.56
2023-04-15T00:05:18.367Z,98865.66
2023-04-15T00:07:49.013Z,98869.81
2023-04-15T00:10:16.693Z,98859.28
2023-04-15T00:12:44.002Z,98861.34
2023-04-15T00:15:12.628Z,98870.16
2023-04-15T00:17:43.099Z,98867.38
2023-04-15T00:20:11.454Z,98869.97
2023-04-15T00:23:00.679Z,98869.97
2023-04-15T00:25:31.721Z,98881.66
2023-04-15T00:28:00.393Z,98870.91
2023-04-15T00:30:28.353Z,98878.50
2023-04-15T00:33:19.315Z,98871.69
2023-04-15T00:36:01.656Z,98860.94
2023-04-15T00:39:06.496Z,98849.56
2023-04-15T00:41:46.197Z,98854.41
2023-04-15T00:48:42.547Z,98845.31
2023-04-15T00:51:27.493Z,98853.44
2023-04-15T00:54:18.319Z,98853.19
2023-04-15T00:56:58.193Z,98864.06
2023-04-15T00:59:41.750Z,98860.50
2023-04-15T01:02:45.028Z,98845.91
2023-04-15T01:05:36.665Z,98852.94
2023-04-15T01:08:04.537Z,98857.75
2023-04-15T01:10:32.060Z,98850.34
2023-04-15T01:12:59.818Z,98847.16
2023-04-15T01:15:27.704Z,98850.47
2023-04-15T01:17:55.890Z,98850.50
2023-04-15T01:20:23.919Z,98837.31
2023-04-15T01:22:52.860Z,98851.84
2023-04-15T01:25:48.230Z,98849.31
2023-04-15T01:28:24.598Z,98853.44
2023-04-15T01:31:05.827Z,98853.59
2023-04-15T01:33:53.166Z,98853.28
2023-04-15T01:36:41.110Z,98841.38
2023-04-15T01:39:08.914Z,98845.66
2023-04-15T01:42:03.386Z,98843.75
2023-04-15T01:44:53.793Z,98844.94
2023-04-15T01:47:27.226Z,98848.94
2023-04-15T01:49:57.343Z,98859.16
2023-04-15T01:52:27.833Z,98853.09
2023-04-15T01:54:57.273Z,98854.91
2023-04-15T01:57:27.519Z,98853.44
2023-04-15T02:00:17.683Z,98852.47
2023-04-15T02:02:47.057Z,98855.91
2023-04-15T02:05:26.335Z,98861.19
2023-04-15T02:08:13.465Z,98861.34
2023-04-15T02:11:03.427Z,98859.81
2023-04-15T02:13:36.760Z,98860.06
2023-04-15T02:16:06.463Z,98856.69
2023-04-15T02:18:37.450Z,98856.22
2023-04-15T02:21:19.007Z,98861.94
2023-04-15T02:23:48.507Z,98853.56
2023-04-15T02:26:18.454Z,98858.97
2023-04-15T02:28:47.336Z,98859.75
2023-04-15T02:31:17.556Z,98851.31
2023-04-15T02:33:47.697Z,98857.09
2023-04-15T02:36:29.856Z,98865.00
2023-04-15T02:39:21.934Z,98864.50
2023-04-15T02:41:52.655Z,98872.91
2023-04-15T02:44:25.034Z,98867.91
2023-04-15T02:46:59.271Z,98857.69
2023-04-15T02:49:49.068Z,98866.63
2023-04-15T02:52:37.755Z,98864.87
2023-04-15T02:55:11.214Z,98863.91
2023-04-15T02:57:44.248Z,98858.63
2023-04-15T03:00:25.492Z,98854.22
2023-04-15T03:02:58.469Z,98855.09
2023-04-15T03:05:28.604Z,98847.16
2023-04-15T03:07:58.676Z,98851.31
2023-04-15T03:10:38.756Z,98850.66
2023-04-15T03:13:08.950Z,98854.91
2023-04-15T03:15:38.177Z,98844.88
2023-04-15T03:18:07.113Z,98854.91
2023-04-15T03:20:37.417Z,98858.63
2023-04-15T03:23:18.262Z,98851.50
2023-04-15T03:25:47.955Z,98859.19
2023-04-15T03:28:17.300Z,98849.63
2023-04-15T03:30:46.491Z,98851.84
2023-04-15T03:33:16.132Z,98855.09
2023-04-15T03:35:45.034Z,98849.47
2023-04-15T03:38:13.875Z,98853.56
2023-04-15T03:40:45.058Z,98846.31
2023-04-15T03:43:14.487Z,98847.91
2023-04-15T03:45:43.346Z,98846.34
2023-04-15T03:48:17.934Z,98840.75
2023-04-15T03:50:51.002Z,98849.44
2023-04-15T03:53:22.270Z,98843.56
2023-04-15T03:55:52.616Z,98848.75
2023-04-15T03:58:22.345Z,98837.66
2023-04-15T04:00:55.141Z,98840.78
2023-04-15T04:03:26.072Z,98840.41
2023-04-15T04:05:55.022Z,98844.94
2023-04-15T04:08:24.025Z,98847.41
2023-04-15T04:10:52.717Z,98847.63
2023-04-15T04:13:22.036Z,98846.88
2023-04-15T04:15:51.812Z,98846.53
2023-04-15T04:18:23.230Z,98840.09
2023-04-15T04:21:16.486Z,98834.53
2023-04-15T04:23:57.497Z,98851.44
2023-04-15T04:26:42.243Z,98852.34
2023-04-15T04:29:34.429Z,98850.91
2023-04-15T04:32:15.935Z,98857.37
2023-04-15T04:35:11.565Z,98854.53
2023-04-15T04:37:54.801Z,98854.41
2023-04-15T04:40:50.235Z,98858.13
2023-04-15T04:43:38.917Z,98856.69
2023-04-15T04:46:12.117Z,98852.75
2023-04-15T04:49:05.588Z,98861.03
2023-04-15T04:51:55.652Z,98853.06
2023-04-15T04:54:38.361Z,98852.19
2023-04-15T05:01:22.813Z,98855.38
2023-04-15T05:04:16.549Z,98853.16
2023-04-15T05:06:59.346Z,98855.00
2023-04-15T05:14:02.500Z,98855.03
2023-04-15T05:16:57.761Z,98861.16
2023-04-15T05:19:26.557Z,98858.34
2023-04-15T05:21:55.836Z,98858.69
2023-04-15T05:24:35.097Z,98857.37
2023-04-15T05:27:05.412Z,98859.19
2023-04-15T05:29:35.711Z,98861.78
2023-04-15T05:32:05.710Z,98862.06
2023-04-15T05:34:34.690Z,98868.31
2023-04-15T05:37:05.437Z,98861.50
2023-04-15T05:39:36.098Z,98873.84
2023-04-15T05:42:06.303Z,98874.59
2023-04-15T05:44:36.293Z,98881.50
2023-04-15T05:47:06.108Z,98871.31
2023-04-15T05:49:39.413Z,98874.94
2023-04-15T05:52:13.240Z,98880.19
2023-04-15T05:54:44.663Z,98879.75
2023-04-15T05:57:19.284Z,98885.28
2023-04-15T06:00:04.216Z,98886.13
2023-04-15T06:02:38.559Z,98886.75
2023-04-15T06:05:11.299Z,98881.69
2023-04-15T06:07:41.369Z,98894.53
2023-04-15T06:10:14.548Z,98895.56
2023-04-15T06:12:43.534Z,98898.94
2023-04-15T06:15:13.317Z,98897.16
2023-04-15T06:17:48.453Z,98904.31
2023-04-15T06:20:19.778Z,98893.84
2023-04-15T06:22:49.994Z,98893.78
2023-04-15T06:25:25.411Z,98897.28
2023-04-15T06:27:57.017Z,98889.72
2023-04-15T06:30:36.529Z,98893.03
2023-04-15T06:33:06.423Z,98890.41
2023-04-15T06:38:18.956Z,98892.25
2023-04-15T06:40:57.073Z,98891.50
2023-04-15T06:43:31.491Z,98895.44
2023-04-15T06:46:15.639Z,98903.31
2023-04-15T06:49:25.558Z,98892.97
2023-04-15T06:52:13.498Z,98895.19
2023-04-15T06:55:28.517Z,98901.53
2023-04-15T06:58:13.532Z,98894.78
2023-04-15T07:01:02.508Z,98896.19
2023-04-15T07:06:27.751Z,98901.59
2023-04-15T07:09:12.477Z,98903.13
2023-04-15T07:11:57.066Z,98908.50
2023-04-15T07:17:09.982Z,98908.25
2023-04-15T07:19:59.221Z,98914.16
2023-04-15T07:23:03.500Z,98914.81
2023-04-15T07:25:41.632Z,98910.59
2023-04-15T07:28:26.556Z,98912.91
2023-04-15T07:31:12.692Z,98915.47
2023-04-15T07:36:41.033Z,98916.34
2023-04-15T07:39:40.022Z,98922.97
2023-04-15T07:42:24.013Z,98918.72
2023-04-15T07:45:27.908Z,98919.03
2023-04-15T07:48:12.755Z,98921.88
2023-04-15T07:50:57.858Z,98923.66
2023-04-15T07:53:44.749Z,98916.28
2023-04-15T07:56:18.753Z,98921.94
2023-04-15T07:59:08.775Z,98917.63
2023-04-15T08:02:03.591Z,98920.22
2023-04-15T08:04:58.792Z,98924.75
2023-04-15T08:07:59.562Z,98921.72
2023-04-15T08:10:31.485Z,98927.44
2023-04-15T08:13:27.210Z,98931.91
2023-04-15T08:16:14.733Z,98926.13
2023-04-15T08:18:47.747Z,98936.47
2023-04-15T08:21:24.567Z,98939.47
2023-04-15T08:23:55.033Z,98939.66
2023-04-15T08:26:28.141Z,98931.34
2023-04-15T08:29:05.988Z,98934.81
2023-04-15T08:31:36.013Z,98940.78
2023-04-15T08:36:51.937Z,98946.53
2023-04-15T08:39:21.480Z,98938.53
2023-04-15T08:42:07.618Z,98948.13
2023-04-15T08:44:38.732Z,98944.72
2023-04-15T08:47:10.725Z,98952.00
2023-04-15T08:49:43.444Z,98951.78
2023-04-15T08:52:20.767Z,98948.91
2023-04-15T08:54:53.659Z,98944.56
2023-04-15T08:57:28.786Z,98944.72
2023-04-15T09:00:05.674Z,98945.88
2023-04-15T09:03:11.244Z,98947.78
2023-04-15T09:05:56.741Z,98948.75
2023-04-15T09:08:57.973Z,98946.72
2023-04-15T09:11:31.078Z,98943.75
2023-04-15T09:14:22.034Z,98946.88
2023-04-15T09:17:07.792Z,98947.63
2023-04-15T09:20:07.785Z,98951.34
2023-04-15T09:22:54.523Z,98959.38
2023-04-15T09:25:35.152Z,98957.00
2023-04-15T09:28:05.212Z,98961.69
2023-04-15T09:30:49.922Z,98954.19
2023-04-15T09:33:23.581Z,98953.69
2023-04-15T09:36:27.570Z,98953.56
2023-04-15T09:39:03.531Z,98954.81
2023-04-15T09:41:34.897Z,98956.78
2023-04-15T09:44:27.947Z,98959.16
2023-04-15T09:47:18.956Z,98963.50
2023-04-15T09:50:01.244Z,98971.22
2023-04-15T09:52:32.248Z,98978.50
2023-04-15T09:55:03.610Z,98980.16
2023-04-15T09:57:39.516Z,98976.97
2023-04-15T10:00:20.171Z,98984.66
2023-04-15T10:02:57.790Z,98988.06
2023-04-15T10:05:36.575Z,98984.16
2023-04-15T10:08:09.462Z,98990.88
2023-04-15T10:10:45.912Z,98978.16
2023-04-15T10:13:18.086Z,98985.47
2023-04-15T10:15:52.107Z,98990.88
2023-04-15T10:18:24.188Z,98988.91
2023-04-15T10:20:54.930Z,98981.25
2023-04-15T10:23:26.009Z,98989.69
2023-04-15T10:25:59.870Z,99000.28
2023-04-15T10:28:38.842Z,98996.00
2023-04-15T10:31:16.914Z,99002.84
2023-04-15T10:33:48.868Z,98998.72
2023-04-15T10:36:20.657Z,99000.13
2023-04-15T10:38:55.055Z,99001.59
2023-04-15T10:41:34.016Z,99006.72
2023-04-15T10:44:05.023Z,99005.34
2023-04-15T10:46:44.153Z,98998.19
2023-04-15T10:49:14.612Z,99001.81
2023-04-15T10:51:47.603Z,99007.19
2023-04-15T10:54:26.801Z,99011.25
2023-04-15T10:57:01.951Z,99000.81
2023-04-15T10:59:46.105Z,99015.84
2023-04-15T11:02:15.980Z,99017.94
2023-04-15T11:05:04.524Z,99014.78
2023-04-15T11:07:33.859Z,99025.37
2023-04-15T11:10:06.460Z,99017.34
2023-04-15T11:12:37.538Z,99007.50
2023-04-15T11:15:26.555Z,99013.13
2023-04-15T11:17:59.563Z,99017.53
2023-04-15T11:20:34.292Z,99009.16
2023-04-15T11:25:41.994Z,99006.69
2023-04-15T11:28:12.851Z,99009.00
2023-04-15T11:30:45.467Z,99004.34
2023-04-15T11:33:16.933Z,99006.34
2023-04-15T11:35:48.889Z,99004.34
2023-04-15T11:38:21.497Z,99013.16
2023-04-15T11:41:02.468Z,99005.50
2023-04-15T11:43:35.635Z,99012.97
2023-04-15T11:46:12.836Z,99007.94
2023-04-15T11:48:44.955Z,99011.91
2023-04-15T11:51:24.739Z,99010.09
2023-04-15T11:53:59.811Z,99011.66
2023-04-15T11:56:34.313Z,99007.63
2023-04-15T11:59:06.315Z,99011.66
2023-04-15T12:01:42.695Z,99014.50
2023-04-15T12:04:13.764Z,99012.44
2023-04-15T12:06:47.657Z,99015.81
2023-04-15T12:09:21.874Z,99015.16
2023-04-15T12:12:05.505Z,99020.34
2023-04-15T12:14:38.548Z,99025.94
2023-04-15T12:17:08.487Z,99020.47
2023-04-15T12:19:39.560Z,99013.78
2023-04-15T12:22:17.580Z,99023.59
2023-04-15T12:27:39.353Z,99031.66
2023-04-15T12:30:17.623Z,99018.00
2023-04-15T12:32:49.687Z,99026.88
2023-04-15T12:35:20.327Z,99027.88
2023-04-15T12:40:24.663Z,99027.03
2023-04-15T12:42:59.620Z,99024.03
2023-04-15T12:45:30.040Z,99024.91
2023-04-15T12:48:09.381Z,99024.16
2023-04-15T12:50:38.700Z,99026.59
2023-04-15T12:53:18.350Z,99025.25
2023-04-15T12:55:49.814Z,99026.63
2023-04-15T13:01:00.117Z,99028.62
2023-04-15T13:03:29.564Z,99033.72
2023-04-15T13:05:59.346Z,99033.28
2023-04-15T13:08:36.936Z,99025.25
2023-04-15T13:11:10.654Z,99029.06
2023-04-15T13:16:17.375Z,99033.09
2023-04-15T13:18:46.585Z,99042.44
2023-04-15T13:21:15.544Z,99041.59
2023-04-15T13:23:43.314Z,99039.88
2023-04-15T13:26:18.918Z,99041.47
2023-04-15T13:28:53.702Z,99036.06
2023-04-15T13:31:22.730Z,99049.13
2023-04-15T13:33:51.614Z,99036.78
2023-04-15T13:36:25.157Z,99038.84
2023-04-15T13:38:53.380Z,99041.59
2023-04-15T13:41:35.573Z,99040.56
2023-04-15T13:44:08.414Z,99053.06
2023-04-15T13:46:42.849Z,99054.53
2023-04-15T13:49:12.456Z,99051.16
2023-04-15T13:51:46.726Z,99040.72
2023-04-15T13:54:18.393Z,99045.63
2023-04-15T13:56:46.790Z,99049.84
2023-04-15T13:59:26.536Z,99049.41
2023-04-15T14:01:58.635Z,99057.19
2023-04-15T14:04:27.992Z,99067.50
2023-04-15T14:12:13.526Z,99056.91
2023-04-15T14:14:49.706Z,99057.66
2023-04-15T14:17:25.438Z,99059.81
2023-04-15T14:19:57.550Z,99063.37
2023-04-15T14:22:26.374Z,99063.19
2023-04-15T14:27:41.372Z,99071.63
2023-04-15T14:30:28.279Z,99076.94
2023-04-15T14:35:33.688Z,99074.31
2023-04-15T14:38:11.477Z,99078.72
2023-04-15T14:40:41.362Z,99073.84
2023-04-15T14:43:11.518Z,99076.50
2023-04-15T14:45:44.600Z,99078.31
2023-04-15T14:48:14.404Z,99074.03
2023-04-15T14:50:42.354Z,99085.97
2023-04-15T14:53:11.319Z,99084.47
2023-04-15T14:55:41.368Z,99089.78
2023-04-15T14:58:17.627Z,99088.63
2023-04-15T15:00:51.396Z,99092.97
2023-04-15T15:03:33.388Z,99088.09
2023-04-15T15:06:09.138Z,99086.22
2023-04-15T15:11:21.873Z,99096.78
2023-04-15T15:13:50.389Z,99105.72
2023-04-15T15:16:28.018Z,99103.38
2023-04-15T15:18:57.910Z,99099.97
2023-04-15T15:21:37.703Z,99102.09
2023-04-15T15:24:06.634Z,99104.53
2023-04-15T15:26:37.517Z,99108.91
2023-04-15T15:29:12.498Z,99117.59
2023-04-15T15:31:57.320Z,99123.13
2023-04-15T15:34:36.473Z,99121.75
2023-04-15T15:37:11.471Z,99132.78
2023-04-15T15:39:45.613Z,99140.97
2023-04-15T15:42:13.593Z,99141.59
2023-04-15T15:44:41.457Z,99152.12
2023-04-15T15:47:12.309Z,99151.28
2023-04-15T15:49:47.365Z,99150.91
2023-04-15T15:52:17.555Z,99150.88
2023-04-15T15:55:01.405Z,99154.97
2023-04-15T15:57:35.592Z,99149.97
2023-04-15T16:00:12.810Z,99156.59
2023-04-15T16:03:06.157Z,99151.41
2023-04-15T16:05:42.236Z,99153.16
2023-04-15T16:08:23.135Z,99158.81
2023-04-15T16:11:05.273Z,99153.72
2023-04-15T16:13:36.139Z,99153.72
2023-04-15T16:16:07.901Z,99162.84
2023-04-15T16:18:39.576Z,99159.25
2023-04-15T16:21:14.484Z,99161.19
2023-04-15T16:23:56.570Z,99156.38
2023-04-15T16:26:31.388Z,99150.75
2023-04-15T16:29:02.699Z,99160.34
2023-04-15T16:31:39.496Z,99164.13
2023-04-15T16:39:29.444Z,99176.50
2023-04-15T16:44:34.901Z,99183.97
2023-04-15T16:47:10.045Z,99180.72
2023-04-15T16:49:41.642Z,99195.00
2023-04-15T16:52:20.344Z,99203.56
2023-04-15T16:54:57.490Z,99201.28
2023-04-15T16:58:01.440Z,99208.28
2023-04-15T17:00:33.113Z,99215.97
2023-04-15T17:05:55.370Z,99220.28
2023-04-15T17:08:23.489Z,99216.47
2023-04-15T17:10:55.307Z,99218.84
2023-04-15T17:13:25.359Z,99224.59
2023-04-15T17:15:56.478Z,99230.19
2023-04-15T17:18:40.456Z,99226.53
2023-04-15T17:21:28.448Z,99238.16
2023-04-15T17:26:50.562Z,99234.56
2023-04-15T17:29:24.564Z,99236.84
2023-04-15T17:35:06.758Z,99253.37
2023-04-15T17:37:55.346Z,99253.19
2023-04-15T17:40:45.396Z,99254.16
2023-04-15T17:43:35.323Z,99253.22
2023-04-15T17:46:25.738Z,99259.16
2023-04-15T17:49:07.534Z,99269.81
2023-04-15T17:52:02.646Z,99268.63
2023-04-15T17:57:36.934Z,99270.28
2023-04-15T18:00:24.984Z,99281.38
2023-04-15T18:03:03.541Z,99277.59
2023-04-15T18:05:57.440Z,99280.91
2023-04-15T18:08:55.510Z,99292.06
2023-04-15T18:11:49.716Z,99295.75
2023-04-15T18:14:50.292Z,99304.00
2023-04-15T18:17:39.916Z,99306.72
2023-04-15T18:20:23.530Z,99303.62
2023-04-15T18:23:01.541Z,99315.50
2023-04-15T18:25:38.331Z,99322.91
2023-04-15T18:30:46.916Z,99324.47
2023-04-15T18:33:23.585Z,99334.66
2023-04-15T18:36:03.013Z,99339.75
2023-04-15T18:38:41.427Z,99340.94
2023-04-15T18:41:18.835Z,99339.75
2023-04-15T18:43:56.450Z,99350.56
2023-04-15T18:46:25.842Z,99349.31
2023-04-15T18:49:05.821Z,99353.69
2023-04-15T18:51:40.282Z,99367.19
2023-04-15T18:54:17.457Z,99369.09
2023-04-15T18:56:45.503Z,99378.94
2023-04-15T18:59:30.145Z,99377.94
2023-04-15T19:02:04.149Z,99380.78
2023-04-15T19:04:44.016Z,99388.19
2023-04-15T19:07:24.241Z,99393.91
2023-04-15T19:12:33.351Z,99397.44
2023-04-15T19:15:09.341Z,99397.94
2023-04-15T19:23:08.668Z,99411.84
2023-04-15T19:25:39.323Z,99415.22
2023-04-15T19:28:12.453Z,99410.59
2023-04-15T19:30:42.400Z,99407.88
2023-04-15T19:33:10.087Z,99413.31
2023-04-15T19:35:45.929Z,99427.78
2023-04-15T19:38:16.242Z,99418.91
2023-04-15T19:40:49.854Z,99433.31
2023-04-15T19:43:18.320Z,99429.66
2023-04-15T19:45:49.514Z,99430.06
2023-04-15T19:48:23.380Z,99437.41
2023-04-15T19:50:54.679Z,99437.28
2023-04-15T19:53:24.538Z,99447.53
2023-04-15T19:58:36.377Z,99447.59
2023-04-15T20:01:09.550Z,99452.41
2023-04-15T20:03:45.488Z,99453.34
2023-04-15T20:06:22.581Z,99456.16
2023-04-15T20:08:58.344Z,99459.22
2023-04-15T20:12:45.671Z,99457.47
2023-04-15T20:14:20.585Z,99448.59
2023-04-15T20:16:59.401Z,99455.75
2023-04-15T20:19:28.732Z,99458.06
2023-04-15T20:21:56.405Z,99452.97
2023-04-15T20:24:25.288Z,99450.47
2023-04-15T20:26:55.313Z,99453.19
2023-04-15T20:29:37.448Z,99454.34
2023-04-15T20:32:07.007Z,99456.62
2023-04-15T20:34:35.502Z,99462.38
2023-04-15T20:37:12.557Z,99459.63
2023-04-15T20:39:44.284Z,99460.91
2023-04-15T20:42:12.723Z,99456.50
2023-04-15T20:44:51.422Z,99454.69
2023-04-15T20:47:20.315Z,99468.56
2023-04-15T20:52:26.520Z,99476.69
2023-04-15T20:55:03.379Z,99471.47
2023-04-15T20:57:33.294Z,99471.53
2023-04-15T21:00:01.587Z,99473.00
2023-04-15T21:02:37.592Z,99483.41
2023-04-15T21:05:08.654Z,99479.31
2023-04-15T21:07:36.269Z,99481.34
2023-04-15T21:10:05.595Z,99497.16
2023-04-15T21:12:41.024Z,99494.19
2023-04-15T21:15:11.698Z,99493.88
2023-04-15T21:17:44.600Z,99498.19
2023-04-15T21:20:22.434Z,99505.22
2023-04-15T21:22:50.743Z,99502.81
2023-04-15T21:25:19.481Z,99514.41
2023-04-15T21:27:47.135Z,99511.41
2023-04-15T21:30:16.951Z,99516.19
2023-04-15T21:32:45.920Z,99516.28
2023-04-15T21:35:18.698Z,99519.75
2023-04-15T21:40:21.171Z,99517.50
2023-04-15T21:42:49.432Z,99521.78
2023-04-15T21:45:17.466Z,99518.91
2023-04-15T21:47:59.737Z,99514.72
2023-04-15T21:50:43.756Z,99521.84
2023-04-15T21:53:18.708Z,99522.69
2023-04-15T21:55:48.697Z,99524.25
2023-04-15T21:58:16.790Z,99524.34
2023-04-15T22:00:45.450Z,99520.78
2023-04-15T22:03:14.744Z,99526.22
2023-04-15T22:05:44.829Z,99526.91
2023-04-15T22:08:12.561Z,99531.03
2023-04-15T22:10:41.106Z,99524.12
2023-04-15T22:13:11.171Z,99527.75
2023-04-15T22:15:40.577Z,99528.37
2023-04-15T22:18:08.134Z,99532.28
2023-04-15T22:20:36.521Z,99530.78
2023-04-15T22:23:07.954Z,99533.66
2023-04-15T22:25:37.161Z,99534.31
2023-04-15T22:28:07.945Z,99539.59
2023-04-15T22:30:39.008Z,99534.38
2023-04-15T22:33:08.277Z,99540.06
2023-04-15T22:35:37.435Z,99536.16
2023-04-15T22:38:05.620Z,99540.06
2023-04-15T22:40:37.216Z,99542.38
2023-04-15T22:43:05.647Z,99541.34
2023-04-15T22:45:36.369Z,99546.72
2023-04-15T22:48:05.559Z,99546.28
2023-04-15T22:50:33.808Z,99544.16
2023-04-15T22:53:02.128Z,99552.16
2023-04-15T22:55:29.501Z,99544.56
2023-04-15T22:57:58.533Z,99544.03
2023-04-15T23:00:26.901Z,99546.44
2023-04-15T23:02:54.671Z,99550.94
2023-04-15T23:05:23.983Z,99545.31
2023-04-15T23:07:51.387Z,99553.00
2023-04-15T23:10:18.849Z,99545.78
2023-04-15T23:12:48.549Z,99539.19
2023-04-15T23:15:16.048Z,99543.78
2023-04-15T23:17:44.109Z,99547.72
2023-04-15T23:20:12.806Z,99545.47
2023-04-15T23:22:42.165Z,99555.44
2023-04-15T23:25:10.210Z,99554.75
2023-04-15T23:27:38.836Z,99560.56
2023-04-15T23:30:07.915Z,99547.53
2023-04-15T23:32:38.476Z,99551.78
2023-04-15T23:35:07.315Z,99553.56
2023-04-15T23:37:36.181Z,99562.91
2023-04-15T23:40:03.889Z,99565.06
2023-04-15T23:42:32.101Z,99561.28
2023-04-15T23:44:59.561Z,99557.84
2023-04-15T23:47:28.959Z,99562.00
2023-04-15T23:49:57.160Z,99563.53
2023-04-15T23:52:24.411Z,99566.53
2023-04-15T23:54:52.207Z,99573.53
2023-04-15T23:57:22.862Z,99570.25
2023-04-15T23:59:50.675Z,99572.97
